Darstellungsparameter: Aktuell verwendete Einstellungen:
Skalierung der Graphiken ... ?
xyx+y,   Skalierungsfaktor:      Skalierung: Modus: x, Faktor: 1
Darstellungszeitraum ... ?
Vom - - bis: - -   Zeitraum: 29.11.2021 - 29.11.2021
Min/Max/Avg-Anzeige ... ?
Zeige MMA aktuell
Zeige MMA Monat
Zeige MMA alles
Zeige --A aktuell
Zeige --A Monat
Zeige --A alles
Keine MMA-Anzeige
MMA:
Average (ber die Originaldaten)
MMA-Basis: 29.11.2021 - 29.11.2021
Quicknavigation für Darstellung... ?
Tage:      1T, 2T, 3T, 5T -1T -2T -3T -5T +1T +2T +3T +5T
Wochen: 1W, 2W, 3W -1W -2W -3W +1W +2W +3W
Monate: 1M, 3M, 6M -1M -3M -6M +1M +3M +6M
Jahre:    1J, 3J, 5J, 10J -1J -3J -5J -10J +1J +3J +5J +10J
Nutze für die Darstellung ... ?
Originaldaten oder Mittelwerte auf ...
Stundenbasis Tagesbasis Wochenbasis
Monatsbasis Jahresbasis      Datenbasis: Original-Daten
Darstellen als:
Statistik (Auto) Statistik J:M      Darstellung:

Der gewünschte Datumsbereich war nicht gültig/verfügbar und wurde korrigiert....
Das angegebene Enddatum (30.04.2022 23:59:59) liegt in der Zukunft.
Das angegebene Startdatum (17.04.2022 00:00:00) liegt in der Zukunft.


Zur Graphik,    zurück zur Übersicht aller Sensoren.
 
Tabellarische Datenbersicht: ?
 
Sensor: Nr:Datum:Temp:Abs-Feuchte:Windchill:Wind:
Aussen-T/F 1 29-11-2021 01:00:00 2.5 C 5.52 g/m*3 2.5 C 1.6 km/h
2 29-11-2021 01:05:00 2.3 C 5.39 g/m*3 2.3 C 1.6 km/h
3 29-11-2021 01:10:00 2.2 C 5.35 g/m*3 2.2 C 4.8 km/h
4 29-11-2021 01:15:00 1.9 C 5.24 g/m*3 1.9 C 4.8 km/h
5 29-11-2021 01:20:00 1.8 C 5.21 g/m*3 1.8 C 0 km/h
6 29-11-2021 01:25:00 1.8 C 5.21 g/m*3 1.8 C 4.8 km/h
7 29-11-2021 01:30:00 1.8 C 5.21 g/m*3 1.8 C 3.2 km/h
8 29-11-2021 01:35:00 1.8 C 5.26 g/m*3 1.8 C 0 km/h
9 29-11-2021 01:40:00 1.8 C 5.26 g/m*3 1.8 C 4.8 km/h
10 29-11-2021 01:45:00 1.8 C 5.26 g/m*3 1.8 C 4.8 km/h
11 29-11-2021 01:50:00 1.9 C 5.3 g/m*3 1.9 C 1.6 km/h
12 29-11-2021 01:55:00 1.9 C 5.3 g/m*3 1.9 C 0 km/h
13 29-11-2021 02:00:00 1.9 C 5.3 g/m*3 1.9 C 3.2 km/h
14 29-11-2021 02:05:00 1.9 C 5.3 g/m*3 1.9 C 4.8 km/h
15 29-11-2021 02:10:00 1.9 C 5.3 g/m*3 -0.97 C 9.7 km/h
16 29-11-2021 02:15:00 1.9 C 5.3 g/m*3 1.9 C 4.8 km/h
17 29-11-2021 02:20:00 2 C 5.33 g/m*3 0.13 C 6.4 km/h
18 29-11-2021 02:25:00 2 C 5.33 g/m*3 0.13 C 6.4 km/h
19 29-11-2021 02:30:00 1.9 C 5.3 g/m*3 1.9 C 1.6 km/h
20 29-11-2021 02:35:00 1.9 C 5.3 g/m*3 1.9 C 3.2 km/h
21 29-11-2021 02:40:00 1.8 C 5.26 g/m*3 -0.1 C 6.4 km/h
22 29-11-2021 02:45:00 1.7 C 5.23 g/m*3 -0.22 C 6.4 km/h
23 29-11-2021 02:50:00 1.7 C 5.23 g/m*3 -0.77 C 8.1 km/h
24 29-11-2021 02:55:00 1.7 C 5.23 g/m*3 1.7 C 3.2 km/h
25 29-11-2021 03:00:00 1.7 C 5.23 g/m*3 -0.77 C 8.1 km/h
Sensor: Nr:Datum:Temp:Abs-Feuchte:Windchill:Wind:
Aussen-T/F 26 29-11-2021 03:05:00 1.8 C 5.26 g/m*3 -1.8 C 12.9 km/h
27 29-11-2021 03:10:00 1.8 C 5.26 g/m*3 1.8 C 3.2 km/h
28 29-11-2021 03:15:00 1.8 C 5.26 g/m*3 1.8 C 3.2 km/h
29 29-11-2021 03:20:00 1.8 C 5.26 g/m*3 -0.65 C 8.1 km/h
30 29-11-2021 03:25:00 1.8 C 5.26 g/m*3 1.8 C 3.2 km/h
31 29-11-2021 03:30:00 1.7 C 5.17 g/m*3 1.7 C 3.2 km/h
32 29-11-2021 03:35:00 1.6 C 5.14 g/m*3 1.6 C 0 km/h
33 29-11-2021 03:40:00 1.4 C 5.07 g/m*3 1.4 C 0 km/h
34 29-11-2021 03:45:00 1.2 C 5 g/m*3 1.2 C 1.6 km/h
35 29-11-2021 03:50:00 1 C 4.93 g/m*3 1 C 3.2 km/h
36 29-11-2021 03:55:00 0.9 C 4.9 g/m*3 0.9 C 3.2 km/h
37 29-11-2021 04:00:00 0.8 C 4.86 g/m*3 0.8 C 4.8 km/h
38 29-11-2021 04:05:00 0.8 C 4.86 g/m*3 -2.28 C 9.7 km/h
39 29-11-2021 04:10:00 0.8 C 4.86 g/m*3 0.8 C 3.2 km/h
40 29-11-2021 04:15:00 0.8 C 4.86 g/m*3 0.8 C 1.6 km/h
41 29-11-2021 04:20:00 0.7 C 4.83 g/m*3 0.7 C 3.2 km/h
42 29-11-2021 04:25:00 0.6 C 4.8 g/m*3 0.6 C 3.2 km/h
43 29-11-2021 04:30:00 0.6 C 4.8 g/m*3 0.6 C 4.8 km/h
44 29-11-2021 04:35:00 0.6 C 4.85 g/m*3 0.6 C 4.8 km/h
45 29-11-2021 04:40:00 0.6 C 4.85 g/m*3 0.6 C 3.2 km/h
46 29-11-2021 04:45:00 0.6 C 4.85 g/m*3 -1.49 C 6.4 km/h
47 29-11-2021 04:50:00 0.6 C 4.85 g/m*3 0.6 C 4.8 km/h
48 29-11-2021 04:55:00 0.6 C 4.85 g/m*3 0.6 C 1.6 km/h
49 29-11-2021 05:00:00 0.6 C 4.8 g/m*3 0.6 C 3.2 km/h
50 29-11-2021 05:05:00 0.4 C 4.73 g/m*3 0.4 C 4.8 km/h
Sensor: Nr:Datum:Temp:Abs-Feuchte:Windchill:Wind:
Aussen-T/F 51 29-11-2021 05:10:00 0.4 C 4.73 g/m*3 0.4 C 3.2 km/h
52 29-11-2021 05:15:00 0.3 C 4.75 g/m*3 0.3 C 3.2 km/h
53 29-11-2021 05:20:00 0.3 C 4.75 g/m*3 0.3 C 0 km/h
54 29-11-2021 05:25:00 0.3 C 4.75 g/m*3 0.3 C 3.2 km/h
55 29-11-2021 05:30:00 0.4 C 4.78 g/m*3 0.4 C 4.8 km/h
56 29-11-2021 05:35:00 0.6 C 4.85 g/m*3 0.6 C 0 km/h
57 29-11-2021 05:40:00 0.7 C 4.88 g/m*3 0.7 C 0 km/h
58 29-11-2021 05:45:00 0.7 C 4.88 g/m*3 0.7 C 0 km/h
59 29-11-2021 05:50:00 0.8 C 4.91 g/m*3 0.8 C 0 km/h
60 29-11-2021 05:55:00 0.8 C 4.91 g/m*3 0.8 C 1.6 km/h
61 29-11-2021 06:00:00 0.8 C 4.91 g/m*3 0.8 C 0 km/h
62 29-11-2021 06:05:00 0.9 C 4.95 g/m*3 0.9 C 0 km/h
63 29-11-2021 06:10:00 0.9 C 4.95 g/m*3 0.9 C 0 km/h
64 29-11-2021 06:15:00 0.9 C 4.95 g/m*3 0.9 C 0 km/h
65 29-11-2021 06:20:00 0.9 C 4.95 g/m*3 0.9 C 0 km/h
66 29-11-2021 06:25:00 0.9 C 4.95 g/m*3 0.9 C 0 km/h
67 29-11-2021 06:30:00 0.9 C 4.95 g/m*3 0.9 C 0 km/h
68 29-11-2021 06:35:00 0.9 C 4.95 g/m*3 0.9 C 0 km/h
69 29-11-2021 06:40:00 0.8 C 4.91 g/m*3 0.8 C 0 km/h
70 29-11-2021 06:45:00 0.7 C 4.88 g/m*3 0.7 C 0 km/h
71 29-11-2021 06:50:00 0.6 C 4.85 g/m*3 0.6 C 0 km/h
72 29-11-2021 06:55:00 0.4 C 4.78 g/m*3 0.4 C 0 km/h
73 29-11-2021 07:00:00 0.4 C 4.78 g/m*3 0.4 C 0 km/h
74 29-11-2021 07:05:00 0.4 C 4.78 g/m*3 0.4 C 0 km/h
75 29-11-2021 07:10:00 0.4 C 4.78 g/m*3 0.4 C 0 km/h
Sensor: Nr:Datum:Temp:Abs-Feuchte:Windchill:Wind:
Aussen-T/F 76 29-11-2021 07:15:00 0.4 C 4.78 g/m*3 0.4 C 0 km/h
77 29-11-2021 07:20:00 0.5 C 4.81 g/m*3 0.5 C 3.2 km/h
78 29-11-2021 07:25:00 0.6 C 4.85 g/m*3 0.6 C 3.2 km/h
79 29-11-2021 07:30:00 0.6 C 4.85 g/m*3 0.6 C 1.6 km/h
80 29-11-2021 07:35:00 0.6 C 4.85 g/m*3 0.6 C 0 km/h
81 29-11-2021 07:40:00 0.6 C 4.85 g/m*3 0.6 C 0 km/h
82 29-11-2021 07:45:00 0.5 C 4.81 g/m*3 0.5 C 3.2 km/h
83 29-11-2021 07:50:00 0.4 C 4.78 g/m*3 0.4 C 3.2 km/h
84 29-11-2021 07:55:00 0.4 C 4.78 g/m*3 0.4 C 3.2 km/h
85 29-11-2021 08:00:00 0.4 C 4.78 g/m*3 0.4 C 1.6 km/h
86 29-11-2021 08:05:00 0.3 C 4.75 g/m*3 0.3 C 0 km/h
87 29-11-2021 08:10:00 0.3 C 4.75 g/m*3 0.3 C 3.2 km/h
88 29-11-2021 08:15:00 0.4 C 4.78 g/m*3 -1.72 C 6.4 km/h
89 29-11-2021 08:20:00 0.5 C 4.81 g/m*3 -1.6 C 6.4 km/h
90 29-11-2021 08:25:00 0.6 C 4.85 g/m*3 -1.49 C 6.4 km/h
91 29-11-2021 08:30:00 0.7 C 4.88 g/m*3 0.7 C 4.8 km/h
92 29-11-2021 08:35:00 0.7 C 4.88 g/m*3 -1.37 C 6.4 km/h
93 29-11-2021 08:40:00 0.8 C 4.91 g/m*3 -1.26 C 6.4 km/h
94 29-11-2021 08:45:00 0.8 C 4.91 g/m*3 -1.83 C 8.1 km/h
95 29-11-2021 08:50:00 0.9 C 4.95 g/m*3 -1.71 C 8.1 km/h
96 29-11-2021 08:55:00 1 C 4.98 g/m*3 -1.03 C 6.4 km/h
97 29-11-2021 09:00:00 1.1 C 5.02 g/m*3 1.1 C 4.8 km/h
98 29-11-2021 09:05:00 1.1 C 5.02 g/m*3 -0.91 C 6.4 km/h
99 29-11-2021 09:10:00 1.1 C 5.02 g/m*3 1.1 C 3.2 km/h
100 29-11-2021 09:15:00 1.2 C 5.05 g/m*3 1.2 C 4.8 km/h
Sensor: Nr:Datum:Temp:Abs-Feuchte:Windchill:Wind:
Aussen-T/F 101 29-11-2021 09:20:00 1.3 C 5.09 g/m*3 -2.41 C 12.9 km/h
102 29-11-2021 09:25:00 1.3 C 5.09 g/m*3 -1.24 C 8.1 km/h
103 29-11-2021 09:30:00 1.4 C 5.12 g/m*3 -1.95 C 11.3 km/h
104 29-11-2021 09:35:00 1.5 C 5.1 g/m*3 -0.45 C 6.4 km/h
105 29-11-2021 09:40:00 1.6 C 5.14 g/m*3 1.6 C 4.8 km/h
106 29-11-2021 09:45:00 1.6 C 5.14 g/m*3 -0.33 C 6.4 km/h
107 29-11-2021 09:50:00 1.7 C 5.17 g/m*3 -0.22 C 6.4 km/h
108 29-11-2021 09:55:00 1.7 C 5.17 g/m*3 -0.22 C 6.4 km/h
109 29-11-2021 10:00:00 1.7 C 5.17 g/m*3 -0.22 C 6.4 km/h
110 29-11-2021 10:05:00 1.8 C 5.15 g/m*3 -0.1 C 6.4 km/h
111 29-11-2021 10:10:00 1.8 C 5.15 g/m*3 -0.65 C 8.1 km/h
112 29-11-2021 10:15:00 1.9 C 5.19 g/m*3 -0.54 C 8.1 km/h
113 29-11-2021 10:20:00 2 C 5.22 g/m*3 -0.42 C 8.1 km/h
114 29-11-2021 10:25:00 2.1 C 5.26 g/m*3 -1.11 C 11.3 km/h
115 29-11-2021 10:30:00 2.2 C 5.24 g/m*3 -0.61 C 9.7 km/h
116 29-11-2021 10:35:00 2.2 C 5.24 g/m*3 -0.61 C 9.7 km/h
117 29-11-2021 10:40:00 2.3 C 5.27 g/m*3 -0.07 C 8.1 km/h
118 29-11-2021 10:45:00 2.3 C 5.22 g/m*3 -0.87 C 11.3 km/h
119 29-11-2021 10:50:00 2.4 C 5.25 g/m*3 -0.37 C 9.7 km/h
120 29-11-2021 10:55:00 2.5 C 5.29 g/m*3 0.17 C 8.1 km/h
121 29-11-2021 11:00:00 2.6 C 5.32 g/m*3 -0.14 C 9.7 km/h
122 29-11-2021 11:05:00 2.6 C 5.27 g/m*3 -0.14 C 9.7 km/h
123 29-11-2021 11:10:00 2.7 C 5.36 g/m*3 -0.38 C 11.3 km/h
124 29-11-2021 11:15:00 2.8 C 5.34 g/m*3 0.1 C 9.7 km/h
125 29-11-2021 11:20:00 2.9 C 5.37 g/m*3 0.22 C 9.7 km/h
Sensor: Nr:Datum:Temp:Abs-Feuchte:Windchill:Wind:
Aussen-T/F 126 29-11-2021 11:25:00 3.1 C 5.45 g/m*3 0.1 C 11.3 km/h
127 29-11-2021 11:30:00 3.2 C 5.42 g/m*3 0.22 C 11.3 km/h
128 29-11-2021 11:35:00 3.3 C 5.46 g/m*3 -0.26 C 14.5 km/h
129 29-11-2021 11:40:00 3.4 C 5.44 g/m*3 -0.14 C 14.5 km/h
130 29-11-2021 11:45:00 3.5 C 5.47 g/m*3 0.94 C 9.7 km/h
131 29-11-2021 11:50:00 3.7 C 5.55 g/m*3 1.18 C 9.7 km/h
132 29-11-2021 11:55:00 3.7 C 5.48 g/m*3 -0.26 C 17.7 km/h
133 29-11-2021 12:00:00 3.8 C 5.52 g/m*3 -0.36 C 19.3 km/h
134 29-11-2021 12:05:00 4 C 5.53 g/m*3 -0.11 C 19.3 km/h
135 29-11-2021 12:10:00 4.2 C 5.61 g/m*3 1.43 C 11.3 km/h
136 29-11-2021 12:15:00 4.2 C 5.54 g/m*3 1.12 C 12.9 km/h
137 29-11-2021 12:20:00 4.3 C 5.58 g/m*3 0.07 C 20.9 km/h
138 29-11-2021 12:25:00 4.3 C 5.58 g/m*3 0.72 C 16.1 km/h
139 29-11-2021 12:30:00 4.3 C 5.51 g/m*3 0.49 C 17.7 km/h
140 29-11-2021 12:35:00 4.3 C 5.51 g/m*3 0.49 C 17.7 km/h
141 29-11-2021 12:40:00 4.3 C 5.58 g/m*3 0.97 C 14.5 km/h
142 29-11-2021 12:45:00 4.3 C 5.51 g/m*3 0.72 C 16.1 km/h
143 29-11-2021 12:50:00 4.3 C 5.58 g/m*3 0.27 C 19.3 km/h
144 29-11-2021 12:55:00 4.1 C 5.57 g/m*3 0.24 C 17.7 km/h
145 29-11-2021 13:00:00 3.8 C 5.52 g/m*3 0.63 C 12.9 km/h
146 29-11-2021 13:05:00 3.6 C 5.57 g/m*3 0.39 C 12.9 km/h
147 29-11-2021 13:10:00 3.5 C 5.6 g/m*3 1.34 C 8.1 km/h
148 29-11-2021 13:15:00 3.5 C 5.6 g/m*3 0.94 C 9.7 km/h
149 29-11-2021 13:20:00 3.4 C 5.62 g/m*3 0.46 C 11.3 km/h
150 29-11-2021 13:25:00 3.4 C 5.62 g/m*3 0.14 C 12.9 km/h
Sensor: Nr:Datum:Temp:Abs-Feuchte:Windchill:Wind:
Aussen-T/F 151 29-11-2021 13:30:00 3.4 C 5.62 g/m*3 -0.14 C 14.5 km/h
152 29-11-2021 13:35:00 3.4 C 5.62 g/m*3 -0.14 C 14.5 km/h
153 29-11-2021 13:40:00 3.4 C 5.68 g/m*3 0.46 C 11.3 km/h
154 29-11-2021 13:45:00 3.3 C 5.64 g/m*3 0.02 C 12.9 km/h
155 29-11-2021 13:50:00 3.3 C 5.64 g/m*3 1.11 C 8.1 km/h
156 29-11-2021 13:55:00 3.3 C 5.64 g/m*3 0.02 C 12.9 km/h
157 29-11-2021 14:00:00 3.3 C 5.64 g/m*3 0.34 C 11.3 km/h
158 29-11-2021 14:05:00 3.3 C 5.64 g/m*3 0.7 C 9.7 km/h
159 29-11-2021 14:10:00 3.3 C 5.64 g/m*3 0.7 C 9.7 km/h
160 29-11-2021 14:15:00 3.3 C 5.7 g/m*3 1.11 C 8.1 km/h
161 29-11-2021 14:20:00 3.3 C 5.7 g/m*3 1.63 C 6.4 km/h
162 29-11-2021 14:25:00 3.3 C 5.7 g/m*3 3.3 C 4.8 km/h
163 29-11-2021 14:30:00 3.3 C 5.7 g/m*3 1.63 C 6.4 km/h
164 29-11-2021 14:35:00 3.3 C 5.7 g/m*3 1.63 C 6.4 km/h
165 29-11-2021 14:40:00 3.3 C 5.7 g/m*3 3.3 C 4.8 km/h
166 29-11-2021 14:45:00 3.3 C 5.7 g/m*3 3.3 C 4.8 km/h
167 29-11-2021 14:50:00 3.3 C 5.7 g/m*3 3.3 C 4.8 km/h
168 29-11-2021 14:55:00 3.4 C 5.74 g/m*3 3.4 C 3.2 km/h
169 29-11-2021 15:00:00 3.4 C 5.74 g/m*3 3.4 C 3.2 km/h
170 29-11-2021 15:05:00 3.4 C 5.74 g/m*3 3.4 C 4.8 km/h
171 29-11-2021 15:10:00 3.4 C 5.74 g/m*3 1.23 C 8.1 km/h
172 29-11-2021 15:15:00 3.4 C 5.74 g/m*3 1.75 C 6.4 km/h
173 29-11-2021 15:20:00 3.4 C 5.74 g/m*3 3.4 C 4.8 km/h
174 29-11-2021 15:25:00 3.4 C 5.74 g/m*3 3.4 C 3.2 km/h
175 29-11-2021 15:30:00 3.4 C 5.74 g/m*3 1.23 C 8.1 km/h
Sensor: Nr:Datum:Temp:Abs-Feuchte:Windchill:Wind:
Aussen-T/F 176 29-11-2021 15:35:00 3.4 C 5.74 g/m*3 1.75 C 6.4 km/h
177 29-11-2021 15:40:00 3.4 C 5.74 g/m*3 3.4 C 4.8 km/h
178 29-11-2021 15:45:00 3.4 C 5.74 g/m*3 3.4 C 4.8 km/h
179 29-11-2021 15:50:00 3.4 C 5.74 g/m*3 1.75 C 6.4 km/h
180 29-11-2021 15:55:00 3.4 C 5.74 g/m*3 3.4 C 3.2 km/h
181 29-11-2021 16:00:00 3.4 C 5.74 g/m*3 3.4 C 3.2 km/h
182 29-11-2021 16:05:00 3.4 C 5.74 g/m*3 1.75 C 6.4 km/h
183 29-11-2021 16:10:00 3.4 C 5.74 g/m*3 3.4 C 4.8 km/h
184 29-11-2021 16:15:00 3.4 C 5.74 g/m*3 3.4 C 0 km/h

Legende:
   Min
   Max


Maximal/Minimal-Werte vom 29.11.2021 - 29.11.2021

Sensor Min Max Avg
Temp
(Aussen-T/F)
0.3 °C
29-11-2021  05:15:00
4.3 °C
29-11-2021  12:20:00
1.99 °C
Abs-Feuchte
(Aussen-T/F)
4.73 g/m*3
29-11-2021  05:05:00
5.74 g/m*3
29-11-2021  14:55:00
5.2 g/m*3
Windchill
(Aussen-T/F)
-2.41 C
29-11-2021  09:20:00
3.4 C
29-11-2021  14:55:00
0.7 C

Die Daten stammen von einer Davis Vantage Pro 2 Wetter-Station und werden unter Linux mit der Software wview2wettercgi und aufbereitet. Alle Angaben erfolgen ohne Gewähr für ihre Vollständigkeit oder Richtigkeit.
Kontakt: Rainer Krienke krienke@uni-koblenz.de . Meine Webseiten an der Uni Koblenz oder privat.
Version: $Revision: 0.78 $